Nearby METAR Reports

METAR is the scheduled surface weather observation taken hourly at civil and military airport locations.

METAR is an acronym from the French language and roughly translates as Aviation Routine Weather Report.

 

EGPL - Benbecula Island, United Kingdom
Distance from station: WNW 41mi, 66km
Updated: 08/03/2021 06:50
Overcast
Overcast
 Wind from SW
Wind: SW 2 mph , 4 km/h
Temperature: 7°C
Dew Point: 6°C
Humidity: 93%
Barometer: 1018 hPa
Clouds: Overcast
Visibility: 6 miles , 10 km
Cloud details: Mostly cloudy 671 m
Overcast 975 m
2021/03/08 06:50 EGPL 080650Z AUTO 22002KT 9999 BKN022/// OVC032/// 07/06 Q1018
EGPU - Tiree Island, United Kingdom
Distance from station: SSW 56mi, 90km
Updated: 08/03/2021 06:20
Light rain, Mostly cloudy
Light rain, Mostly cloudy
 Wind from W
Wind: W 12 mph , 19 km/h
Temperature: 8°C
Wind Chill: 4°C
Dew Point: 8°C
Humidity: 100%
Barometer: 1019 hPa
Summary: Light rain
Clouds: Mostly cloudy
Visibility: 2 miles , 3 km
Cloud details: Few Clouds 366 m
Mostly cloudy 1036 m
2021/03/08 06:20 EGPU 080620Z AUTO 27010KT 2700 -RA FEW012/// BKN034/// 08/08 Q1019
 
EGEO - Oban Airport, United Kingdom
Distance from station: SE 65mi, 105km
Updated: 04/03/2021 15:50
NOT Current
Few Clouds
Few Clouds
 Wind from E
Wind: E 9 mph , 15 km/h
Temperature: 7°C
Wind Chill: 4°C
Dew Point: -2°C
Humidity: 53%
Barometer: 1030 hPa
Clouds: Few Clouds
Visibility: 6 miles , 10 km
Cloud details: Few Clouds 1372 m
2021/03/04 15:50 EGEO 041550Z 09008KT 060V130 9999 FEW045 07/M02 Q1030
EGPO - Stornoway, United Kingdom
Distance from station: 0 66mi, 106km
Updated: 08/03/2021 06:50
Partly cloudy
Partly cloudy
 Wind from SW
Wind: SW 1 mph , 2 km/h
Temperature: 4°C
Dew Point: 3°C
Humidity: 93%
Barometer: 1017 hPa
Clouds: Partly cloudy
Visibility: 6 miles , 10 km
Cloud details: Few Clouds 610 m
Partly cloudy 1280 m
2021/03/08 06:50 EGPO 080650Z 23001KT 9999 FEW020 SCT042 04/03 Q1017
 
EGPE - Inverness/Dalcro, United Kingdom
Distance from station: ENE 88mi, 141km
Updated: 08/03/2021 06:50
Mostly cloudy
Mostly cloudy
 Wind from SW
Wind: SW 7 mph , 11 km/h
Temperature: 6°C
Wind Chill: 4°C
Dew Point: 5°C
Humidity: 93%
Barometer: 1017 hPa
Clouds: Mostly cloudy
Visibility: 6 miles , 10 km
Cloud details: Few Clouds 213 m
Partly cloudy 488 m
Mostly cloudy 1280 m
2021/03/08 06:50 EGPE 080650Z 22006KT 9999 FEW007 SCT016 BKN042 06/05 Q1017
EGQA - Tain Range (saws, United Kingdom
Distance from station: ENE 97mi, 156km
Updated: 04/03/2021 13:50
NOT Current
Mostly cloudy
Mostly cloudy
 Wind from NNE
Wind: NNE 12 mph , 19 km/h
Clouds: Mostly cloudy
Visibility: 6 miles , 10 km
Cloud details: Mostly cloudy 1067 m
2021/03/04 13:50 EGQA 041350Z 02010KT 9999 BKN035 06/// Q1033 RMK BLU
 
EGQK - Kinloss Raf, United Kingdom
Distance from station: ENE 107mi, 171km
Updated: 08/03/2021 05:50
Light rain, Mostly cloudy
Light rain, Mostly cloudy
 Wind from SW
Wind: SW 6 mph , 9 km/h
Temperature: 6°C
Wind Chill: 4°C
Dew Point: 5°C
Humidity: 93%
Barometer: 1017 hPa
Summary: Light rain
Clouds: Mostly cloudy
Visibility: 6 miles , 10 km
Cloud details: Few Clouds 884 m
Mostly cloudy 1524 m
2021/03/08 05:50 EGQK 080550Z AUTO 23005KT 9999 -RA FEW029/// BKN050/// 06/05 Q1017
EGPI - Islay/Port Ellen, United Kingdom
Distance from station: S 110mi, 177km
Updated: 08/03/2021 06:20
Mostly cloudy
Mostly cloudy
 Wind from W
Wind: W 13 mph , 20 km/h
Temperature: 8°C
Wind Chill: 4°C
Dew Point: 7°C
Humidity: 93%
Barometer: 1020 hPa
Clouds: Mostly cloudy
Visibility: 6 miles , 10 km
Cloud details: Mostly cloudy 732 m
2021/03/08 06:20 EGPI 080620Z AUTO 26011KT 9999 BKN024/// 08/07 Q1020
 
EGQS - Lossiemouth Raf, United Kingdom
Distance from station: ENE 117mi, 188km
Updated: 08/03/2021 06:50
Mostly cloudy
Mostly cloudy
 Wind from SW
Wind: SW 8 mph , 13 km/h
Temperature: 6°C
Wind Chill: 3°C
Dew Point: 6°C
Humidity: 100%
Barometer: 1017 hPa
Clouds: Mostly cloudy
Visibility: 6 miles , 10 km
Cloud details: Few Clouds 366 m
Mostly cloudy 762 m
Mostly cloudy 1280 m
2021/03/08 06:50 EGQS 080650Z 23007KT 9999 FEW012 BKN025 BKN042 06/06 Q1017 TEMPO SCT022 RMK BLU TEMPO WHT
EGPF - Glasgow Airport, United Kingdom
Distance from station: SE 121mi, 195km
Updated: 08/03/2021 06:50
Light rain, Thunderstorm
Light rain, Thunderstorm
 Wind from WSW
Wind: WSW 12 mph , 19 km/h
Temperature: 8°C
Wind Chill: 4°C
Dew Point: 7°C
Humidity: 93%
Barometer: 1019 hPa
Summary: Light rain
Clouds: Thunderstorm
Visibility: 6 miles , 10 km
Cloud details: Mostly cloudy 335 m
Overcast 1128 m
2021/03/08 06:50 EGPF 080650Z AUTO 25010KT 9999 -RA BKN011/// OVC037/// //////TCU 08/07 Q1019
 
EGEC - Campbeltown, United Kingdom
Distance from station: SSE 129mi, 207km
Updated: 07/03/2021 06:50
NOT Current
Few Clouds
Few Clouds
 Wind from ESE
Wind: ESE 5 mph , 7 km/h
Temperature: 1°C
Wind Chill: -2°C
Dew Point: 1°C
Humidity: 100%
Barometer: 1027 hPa
Clouds: Few Clouds
Visibility: 6 miles , 10 km
Cloud details: Few Clouds 1372 m
2021/03/07 06:50 EGEC 070650Z 11004KT 9999 FEW045 01/01 Q1027
EGPN - Dundee/Riverside, United Kingdom
Distance from station: ESE 137mi, 221km
Updated: 07/03/2021 15:50
NOT Current
Mostly cloudy
Mostly cloudy
 Wind from SW
Wind: SW 2 mph , 4 km/h
Temperature: 8°C
Dew Point: 5°C
Humidity: 82%
Barometer: 1022 hPa
Clouds: Mostly cloudy
Visibility: 6 miles , 10 km
Cloud details: Partly cloudy 914 m
Mostly cloudy 1341 m
2021/03/07 15:50 EGPN 071550Z 23002KT 9999 SCT030 BKN044 08/05 Q1022
 
EGPK - Prestwick(Civ/Na, United Kingdom
Distance from station: SSE 139mi, 224km
Updated: 08/03/2021 06:50
Mostly cloudy
Mostly cloudy
 Wind from WSW
Wind: WSW 16 mph , 26 km/h
Temperature: 7°C
Wind Chill: 3°C
Dew Point: 6°C
Humidity: 93%
Barometer: 1020 hPa
Clouds: Mostly cloudy
Visibility: 6 miles , 10 km
Cloud details: Mostly cloudy 488 m
2021/03/08 06:50 EGPK 080650Z 24014KT 9999 R30/1400 BKN016 07/06 Q1020
EGQL - Leuchars Raf, United Kingdom
Distance from station: ESE 145mi, 233km
Updated: 08/03/2021 06:50
Nearby showers, Partly cloudy
Nearby showers, Partly cloudy
 Wind from WSW
Wind: WSW 9 mph , 15 km/h
Temperature: 6°C
Wind Chill: 3°C
Dew Point: 6°C
Humidity: 100%
Barometer: 1018 hPa
Summary: Nearby Showers
Clouds: Partly cloudy
Visibility: 6 miles , 10 km
Cloud details: Mostly cloudy 1036 m
Partly cloudy 3353 m
2021/03/08 06:50 EGQL 080650Z 25008KT 9999 VCSH BKN034 SCT110 06/06 Q1018 BLU
 
EGPH - Edinburgh Airpor, United Kingdom
Distance from station: SE 145mi, 234km
Updated: 08/03/2021 06:50
Mostly cloudy
Mostly cloudy
 Wind from WSW
Wind: WSW 13 mph , 20 km/h
Temperature: 7°C
Wind Chill: 4°C
Dew Point: 6°C
Humidity: 93%
Barometer: 1018 hPa
Clouds: Mostly cloudy
Visibility: 6 miles , 10 km
Cloud details: Few Clouds 396 m
Mostly cloudy 1341 m
2021/03/08 06:50 EGPH 080650Z 25011KT 9999 FEW013 BKN044 07/06 Q1018
EGPC - Wick, United Kingdom
Distance from station: NE 146mi, 234km
Updated: 08/03/2021 06:50
Overcast
Overcast
 Wind from S
Wind: S 1 mph , 2 km/h
Temperature: 5°C
Dew Point: 5°C
Humidity: 100%
Barometer: 1016 hPa
Clouds: Overcast
Visibility: 6 miles , 10 km
Cloud details: Mostly cloudy 396 m
Overcast 732 m
2021/03/08 06:50 EGPC 080650Z AUTO 17001KT 9999 BKN013/// OVC024/// 05/05 Q1016

-

free counters
QR Code Twitter Scottish Weather Network UK Weather Network
Argyll House B & B

Argyll House B & B is situated in North West Skye and is the perfect base to see all that the Isle of Skye has to offer. Bookings are been taken for 2021 and 2022